Time;durP1;ratioP1;P1;durP2;ratioP2;P2;SDS_P1;SDS_P2;PMS_P1;PMS_P2;Temp;Humidity;BMP_temperature;BMP_pressure;BME280_temperature;BME280_humidity;BME280_pressure;Samples;Min_cycle;Max_cycle;Signal;HPM_P1;HPM_P2
2021/09/02 00:00:31;;;;;;;9.03;4.07;;;;;;;12.74;87.29;101300.83;21624984;80;99697;-82
2021/09/02 00:30:32;;;;;;;9.45;4.58;;;;;;;12.60;87.44;101317.97;21604790;80;99505;-82
2021/09/02 01:00:33;;;;;;;11.63;5.13;;;;;;;12.45;88.89;101317.53;21622902;80;99776;-83
2021/09/02 01:30:36;;;;;;;10.13;5.23;;;;;;;12.20;89.73;101343.06;21320689;80;99590;-84
2021/09/02 02:00:37;;;;;;;10.50;5.00;;;;;;;11.91;90.52;101345.87;21252231;82;99666;-82
2021/09/02 02:30:38;;;;;;;9.53;4.47;;;;;;;11.48;90.45;101343.91;21467022;80;99874;-84
2021/09/02 03:00:38;;;;;;;10.20;5.30;;;;;;;11.12;91.55;101335.43;21485476;81;99628;-84
2021/09/02 03:30:39;;;;;;;9.83;5.10;;;;;;;10.78;91.44;101325.73;21401874;81;99601;-84
2021/09/02 04:00:40;;;;;;;13.23;6.00;;;;;;;10.52;92.33;101328.25;21339364;80;100520;-83
2021/09/02 04:30:41;;;;;;;10.63;4.70;;;;;;;10.26;92.73;101349.37;21556368;80;100020;-83
2021/09/02 05:00:43;;;;;;;10.80;5.80;;;;;;;10.12;93.49;101350.38;21606912;80;99936;-83
2021/09/02 05:30:44;;;;;;;13.13;7.05;;;;;;;10.23;94.31;101356.97;21641367;80;99706;-82
2021/09/02 06:00:45;;;;;;;16.73;8.67;;;;;;;10.66;96.80;101373.45;21592039;80;136614;-82
2021/09/02 06:30:46;;;;;;;13.67;7.70;;;;;;;12.07;100.00;101381.65;21603788;80;99599;-83
2021/09/02 07:00:47;;;;;;;13.65;6.87;;;;;;;13.55;99.88;101384.44;21567909;80;99584;-81
2021/09/02 07:30:48;;;;;;;11.53;5.73;;;;;;;15.47;94.63;101407.32;21646535;80;99485;-83
2021/09/02 08:00:49;;;;;;;10.85;4.90;;;;;;;15.47;94.63;101407.32;21645404;80;99398;-83
2021/09/02 08:30:50;;;;;;;12.67;5.20;;;;;;;16.43;89.39;101419.94;21627005;80;99668;-83
2021/09/02 09:00:50;;;;;;;7.75;4.08;;;;;;;17.98;84.98;101437.45;21645255;80;99477;-82
2021/09/02 09:30:51;;;;;;;10.18;4.22;;;;;;;23.30;76.15;101430.89;21633185;80;99671;-83
2021/09/02 10:01:02;;;;;;;7.80;4.28;;;;;;;27.53;63.04;101431.23;21654591;80;99477;-80
2021/09/02 10:31:08;;;;;;;7.85;4.55;;;;;;;29.57;53.74;101425.23;21584885;80;99528;-84
2021/09/02 11:01:29;;;;;;;8.83;4.58;;;;;;;30.66;48.93;101411.00;21614746;80;99730;-83
2021/09/02 11:31:32;;;;;;;8.23;4.55;;;;;;;29.43;46.53;101406.09;21622112;80;99355;-85
2021/09/02 12:01:48;;;;;;;8.43;5.05;;;;;;;28.36;44.41;101391.90;21602059;80;99547;-82
2021/09/02 12:31:53;;;;;;;8.55;3.80;;;;;;;27.70;45.50;101394.31;21638563;80;99258;-83
2021/09/02 13:01:54;;;;;;;7.12;3.20;;;;;;;26.62;45.26;101372.84;21636509;80;99254;-82
2021/09/02 13:31:55;;;;;;;6.40;2.50;;;;;;;26.04;46.24;101359.79;21650019;80;99612;-83
2021/09/02 14:01:56;;;;;;;4.72;2.30;;;;;;;24.56;47.13;101333.69;21619795;80;99289;-82
2021/09/02 14:31:57;;;;;;;5.12;2.42;;;;;;;24.56;47.13;101333.69;21372936;81;99345;-82
2021/09/02 15:01:58;;;;;;;7.35;2.22;;;;;;;23.93;47.41;101315.33;21400009;81;99437;-82
2021/09/02 15:31:59;;;;;;;4.53;1.90;;;;;;;23.46;48.18;101316.28;21099621;80;99689;-83
2021/09/02 16:02:00;;;;;;;5.83;1.40;;;;;;;22.60;48.41;101309.07;20995955;83;99924;-82
2021/09/02 16:32:03;;;;;;;4.70;2.05;;;;;;;21.82;50.16;101288.80;20991564;81;99362;-83
2021/09/02 17:02:04;;;;;;;3.27;1.22;;;;;;;21.16;50.84;101283.30;20993304;83;99499;-83
2021/09/02 17:32:06;;;;;;;3.92;1.87;;;;;;;20.43;54.58;101271.95;21112439;81;99415;-84
2021/09/02 18:02:07;;;;;;;6.83;2.50;;;;;;;19.42;56.79;101274.91;21154158;82;99251;-84
2021/09/02 18:32:09;;;;;;;10.57;5.23;;;;;;;18.15;59.61;101295.89;21313568;81;99229;-84
2021/09/02 19:02:13;;;;;;;8.78;4.08;;;;;;;16.85;63.78;101319.91;21355502;81;99434;-82
2021/09/02 19:32:19;;;;;;;10.07;5.40;;;;;;;15.80;66.93;101329.40;21223835;81;129503;-85
2021/09/02 20:02:33;;;;;;;10.20;4.80;;;;;;;14.99;69.24;101313.45;21118963;82;274149;-87
2021/09/02 20:32:35;;;;;;;10.10;4.40;;;;;;;14.16;72.33;101319.20;21249649;81;248897;-87
2021/09/02 21:02:37;;;;;;;10.10;4.40;;;;;;;13.51;74.59;101326.92;21309764;81;197182;-87
2021/09/02 21:32:43;;;;;;;8.43;3.17;;;;;;;12.89;76.25;101326.14;21194584;81;183703;-83
2021/09/02 22:02:44;;;;;;;7.20;2.97;;;;;;;12.35;77.65;101333.31;21119116;82;100038;-84
2021/09/02 22:32:45;;;;;;;9.73;4.37;;;;;;;11.86;79.12;101332.94;21277370;81;99452;-84
2021/09/02 23:02:47;;;;;;;7.70;3.52;;;;;;;11.38;80.66;101308.08;21345567;81;99278;-84
2021/09/02 23:32:48;;;;;;;9.13;3.10;;;;;;;10.96;81.32;101287.05;21250468;81;99301;-84
